Kamas, Utah
Current Conditions -  °F | °C
As of 1:35 AM on Sunday 23 Nov 2014 (Local Time) from K36U Reporting Station
Light Snow Light Snow  
Wind Chill: 32°   Ceiling: 1100
Heat Index: 32°   Visibility: 2.5mi
Dew Point: 30°   Wind: 3mph
Humidity: 93%   Direction: 90°E
Pressure: 29.91"   Gusts: NA
Location:  40.64°N, 111.28°W
Report Text: K36U 230835Z AUTO 09003KT 2 1/2SM -SN SCT006 OVC011 00/M01 A2991 RMK AO2
Loading
Personal Weather Stations






























Interactive Weather Map New forecast layout! Learn more

10-Day Weather Forecast

Advertisements
Track Severe Weather on mobile